sensor_id;sensor_type;location;lat;lon;timestamp;P1;durP1;ratioP1;P2;durP2;ratioP2
34775;SDS011;20989;52.566;13.346;2023-02-28T00:00:55;0.90;;;0.90;;
34775;SDS011;20989;52.566;13.346;2023-02-28T00:03:56;2.40;;;1.08;;
34775;SDS011;20989;52.566;13.346;2023-02-28T00:06:57;1.00;;;1.00;;
34775;SDS011;20989;52.566;13.346;2023-02-28T00:09:57;1.00;;;1.00;;
34775;SDS011;20989;52.566;13.346;2023-02-28T00:12:59;1.40;;;1.30;;
34775;SDS011;20989;52.566;13.346;2023-02-28T00:16:04;1.00;;;1.00;;
34775;SDS011;20989;52.566;13.346;2023-02-28T00:19:13;1.00;;;1.00;;
34775;SDS011;20989;52.566;13.346;2023-02-28T00:22:15;0.82;;;0.80;;
34775;SDS011;20989;52.566;13.346;2023-02-28T00:25:18;0.98;;;0.98;;
34775;SDS011;20989;52.566;13.346;2023-02-28T00:28:21;1.00;;;1.00;;
34775;SDS011;20989;52.566;13.346;2023-02-28T00:31:22;0.80;;;0.80;;
34775;SDS011;20989;52.566;13.346;2023-02-28T00:34:22;0.90;;;0.90;;
34775;SDS011;20989;52.566;13.346;2023-02-28T00:37:23;1.15;;;1.10;;
34775;SDS011;20989;52.566;13.346;2023-02-28T00:40:24;0.85;;;0.85;;
34775;SDS011;20989;52.566;13.346;2023-02-28T00:43:24;0.80;;;0.80;;
34775;SDS011;20989;52.566;13.346;2023-02-28T00:46:25;1.02;;;1.02;;
34775;SDS011;20989;52.566;13.346;2023-02-28T00:49:27;1.20;;;1.10;;
34775;SDS011;20989;52.566;13.346;2023-02-28T00:52:28;0.93;;;0.93;;
34775;SDS011;20989;52.566;13.346;2023-02-28T00:55:29;0.80;;;0.80;;
34775;SDS011;20989;52.566;13.346;2023-02-28T00:58:29;1.00;;;1.00;;
34775;SDS011;20989;52.566;13.346;2023-02-28T01:01:30;1.00;;;1.00;;
34775;SDS011;20989;52.566;13.346;2023-02-28T01:04:31;0.70;;;0.70;;
34775;SDS011;20989;52.566;13.346;2023-02-28T01:07:32;0.70;;;0.70;;
34775;SDS011;20989;52.566;13.346;2023-02-28T01:10:32;0.90;;;0.80;;
34775;SDS011;20989;52.566;13.346;2023-02-28T01:13:33;0.80;;;0.80;;
34775;SDS011;20989;52.566;13.346;2023-02-28T01:16:34;0.80;;;0.80;;
34775;SDS011;20989;52.566;13.346;2023-02-28T01:19:34;0.93;;;0.93;;
34775;SDS011;20989;52.566;13.346;2023-02-28T01:22:35;1.17;;;0.95;;
34775;SDS011;20989;52.566;13.346;2023-02-28T01:25:36;1.00;;;1.00;;
34775;SDS011;20989;52.566;13.346;2023-02-28T01:28:37;0.70;;;0.70;;
34775;SDS011;20989;52.566;13.346;2023-02-28T01:31:38;1.15;;;1.15;;
34775;SDS011;20989;52.566;13.346;2023-02-28T01:34:38;1.23;;;1.13;;
34775;SDS011;20989;52.566;13.346;2023-02-28T01:37:39;0.90;;;0.90;;
34775;SDS011;20989;52.566;13.346;2023-02-28T01:40:40;0.77;;;0.77;;
34775;SDS011;20989;52.566;13.346;2023-02-28T01:46:44;0.85;;;0.85;;
34775;SDS011;20989;52.566;13.346;2023-02-28T01:49:44;0.80;;;0.80;;
34775;SDS011;20989;52.566;13.346;2023-02-28T01:52:46;0.82;;;0.82;;
34775;SDS011;20989;52.566;13.346;2023-02-28T01:55:48;1.50;;;1.15;;
34775;SDS011;20989;52.566;13.346;2023-02-28T01:58:52;0.90;;;0.90;;
34775;SDS011;20989;52.566;13.346;2023-02-28T02:01:54;1.05;;;1.05;;
34775;SDS011;20989;52.566;13.346;2023-02-28T02:05:05;0.88;;;0.88;;
34775;SDS011;20989;52.566;13.346;2023-02-28T02:08:11;1.45;;;0.80;;
34775;SDS011;20989;52.566;13.346;2023-02-28T02:11:16;0.65;;;0.65;;
34775;SDS011;20989;52.566;13.346;2023-02-28T02:17:35;0.80;;;0.80;;
34775;SDS011;20989;52.566;13.346;2023-02-28T02:27:20;0.95;;;0.95;;
34775;SDS011;20989;52.566;13.346;2023-02-28T02:37:18;1.05;;;1.00;;
34775;SDS011;20989;52.566;13.346;2023-02-28T02:41:06;0.77;;;0.77;;
34775;SDS011;20989;52.566;13.346;2023-02-28T02:44:12;1.08;;;1.02;;
34775;SDS011;20989;52.566;13.346;2023-02-28T02:47:20;0.80;;;0.80;;
34775;SDS011;20989;52.566;13.346;2023-02-28T02:50:26;0.88;;;0.88;;
34775;SDS011;20989;52.566;13.346;2023-02-28T02:53:35;0.70;;;0.70;;
34775;SDS011;20989;52.566;13.346;2023-02-28T02:57:05;1.15;;;1.15;;
34775;SDS011;20989;52.566;13.346;2023-02-28T03:00:14;1.10;;;1.10;;
34775;SDS011;20989;52.566;13.346;2023-02-28T03:03:17;0.90;;;0.90;;
34775;SDS011;20989;52.566;13.346;2023-02-28T03:06:20;0.80;;;0.80;;
34775;SDS011;20989;52.566;13.346;2023-02-28T03:09:24;0.93;;;0.93;;
34775;SDS011;20989;52.566;13.346;2023-02-28T03:12:33;1.00;;;1.00;;
34775;SDS011;20989;52.566;13.346;2023-02-28T03:25:56;0.80;;;0.80;;
34775;SDS011;20989;52.566;13.346;2023-02-28T03:35:22;0.80;;;0.80;;
34775;SDS011;20989;52.566;13.346;2023-02-28T03:41:36;0.70;;;0.70;;
34775;SDS011;20989;52.566;13.346;2023-02-28T03:44:48;1.00;;;1.00;;
34775;SDS011;20989;52.566;13.346;2023-02-28T03:51:19;1.05;;;1.00;;
34775;SDS011;20989;52.566;13.346;2023-02-28T03:54:23;0.90;;;0.90;;
34775;SDS011;20989;52.566;13.346;2023-02-28T03:58:32;0.98;;;0.98;;
34775;SDS011;20989;52.566;13.346;2023-02-28T04:01:07;0.90;;;0.90;;
34775;SDS011;20989;52.566;13.346;2023-02-28T04:04:21;1.00;;;1.00;;
34775;SDS011;20989;52.566;13.346;2023-02-28T04:07:22;0.80;;;0.80;;
34775;SDS011;20989;52.566;13.346;2023-02-28T04:10:23;0.70;;;0.70;;
34775;SDS011;20989;52.566;13.346;2023-02-28T04:13:24;0.60;;;0.60;;
34775;SDS011;20989;52.566;13.346;2023-02-28T04:16:25;1.10;;;1.00;;
34775;SDS011;20989;52.566;13.346;2023-02-28T04:19:26;0.95;;;0.95;;
34775;SDS011;20989;52.566;13.346;2023-02-28T04:22:27;0.85;;;0.82;;
34775;SDS011;20989;52.566;13.346;2023-02-28T04:25:27;1.00;;;1.00;;
34775;SDS011;20989;52.566;13.346;2023-02-28T04:28:28;0.80;;;0.80;;
34775;SDS011;20989;52.566;13.346;2023-02-28T04:31:29;1.50;;;1.02;;
34775;SDS011;20989;52.566;13.346;2023-02-28T04:34:30;1.23;;;1.13;;
34775;SDS011;20989;52.566;13.346;2023-02-28T04:37:32;0.77;;;0.77;;
34775;SDS011;20989;52.566;13.346;2023-02-28T04:40:35;0.82;;;0.82;;
34775;SDS011;20989;52.566;13.346;2023-02-28T04:43:35;1.10;;;1.00;;
34775;SDS011;20989;52.566;13.346;2023-02-28T04:46:36;0.80;;;0.80;;
34775;SDS011;20989;52.566;13.346;2023-02-28T04:49:37;0.85;;;0.85;;
34775;SDS011;20989;52.566;13.346;2023-02-28T04:52:38;1.02;;;1.00;;
34775;SDS011;20989;52.566;13.346;2023-02-28T04:55:38;1.08;;;1.00;;
34775;SDS011;20989;52.566;13.346;2023-02-28T04:58:41;1.15;;;0.90;;
34775;SDS011;20989;52.566;13.346;2023-02-28T05:01:45;1.10;;;1.00;;
34775;SDS011;20989;52.566;13.346;2023-02-28T05:04:47;1.30;;;1.20;;
34775;SDS011;20989;52.566;13.346;2023-02-28T05:07:48;0.88;;;0.88;;
34775;SDS011;20989;52.566;13.346;2023-02-28T05:10:48;0.73;;;0.73;;
34775;SDS011;20989;52.566;13.346;2023-02-28T05:13:49;1.08;;;0.98;;
34775;SDS011;20989;52.566;13.346;2023-02-28T05:16:50;1.00;;;1.00;;
34775;SDS011;20989;52.566;13.346;2023-02-28T05:19:52;1.08;;;1.02;;
34775;SDS011;20989;52.566;13.346;2023-02-28T05:22:52;1.05;;;1.05;;
34775;SDS011;20989;52.566;13.346;2023-02-28T05:25:53;1.02;;;1.02;;
34775;SDS011;20989;52.566;13.346;2023-02-28T05:28:54;0.93;;;0.93;;
34775;SDS011;20989;52.566;13.346;2023-02-28T05:31:55;1.25;;;1.10;;
34775;SDS011;20989;52.566;13.346;2023-02-28T05:34:56;1.00;;;1.00;;
34775;SDS011;20989;52.566;13.346;2023-02-28T05:37:56;1.55;;;1.45;;
34775;SDS011;20989;52.566;13.346;2023-02-28T05:40:57;1.08;;;1.08;;
34775;SDS011;20989;52.566;13.346;2023-02-28T05:43:58;0.77;;;0.77;;
34775;SDS011;20989;52.566;13.346;2023-02-28T05:46:59;0.85;;;0.85;;
34775;SDS011;20989;52.566;13.346;2023-02-28T05:50:00;1.48;;;1.38;;
34775;SDS011;20989;52.566;13.346;2023-02-28T05:53:01;5.15;;;1.33;;
34775;SDS011;20989;52.566;13.346;2023-02-28T05:56:02;0.98;;;0.98;;
34775;SDS011;20989;52.566;13.346;2023-02-28T05:59:03;1.15;;;1.08;;
34775;SDS011;20989;52.566;13.346;2023-02-28T06:02:04;1.20;;;1.10;;
34775;SDS011;20989;52.566;13.346;2023-02-28T06:05:05;1.10;;;1.05;;
34775;SDS011;20989;52.566;13.346;2023-02-28T06:08:12;0.95;;;0.82;;
34775;SDS011;20989;52.566;13.346;2023-02-28T06:11:13;0.93;;;0.93;;
34775;SDS011;20989;52.566;13.346;2023-02-28T06:14:15;1.27;;;1.17;;
34775;SDS011;20989;52.566;13.346;2023-02-28T06:17:17;0.90;;;0.90;;
34775;SDS011;20989;52.566;13.346;2023-02-28T06:20:18;1.20;;;1.10;;
34775;SDS011;20989;52.566;13.346;2023-02-28T06:23:18;1.27;;;1.17;;
34775;SDS011;20989;52.566;13.346;2023-02-28T06:26:19;1.67;;;1.42;;
34775;SDS011;20989;52.566;13.346;2023-02-28T06:29:20;1.55;;;1.45;;
34775;SDS011;20989;52.566;13.346;2023-02-28T06:32:21;0.95;;;0.95;;
34775;SDS011;20989;52.566;13.346;2023-02-28T06:35:22;1.17;;;1.17;;
34775;SDS011;20989;52.566;13.346;2023-02-28T06:38:22;1.70;;;1.55;;
34775;SDS011;20989;52.566;13.346;2023-02-28T06:41:23;1.65;;;1.20;;
34775;SDS011;20989;52.566;13.346;2023-02-28T06:44:25;1.20;;;1.08;;
34775;SDS011;20989;52.566;13.346;2023-02-28T06:47:26;1.20;;;1.08;;
34775;SDS011;20989;52.566;13.346;2023-02-28T06:50:26;1.30;;;1.20;;
34775;SDS011;20989;52.566;13.346;2023-02-28T06:53:29;1.77;;;1.38;;
34775;SDS011;20989;52.566;13.346;2023-02-28T06:56:30;1.48;;;1.38;;
34775;SDS011;20989;52.566;13.346;2023-02-28T06:59:31;2.30;;;1.48;;
34775;SDS011;20989;52.566;13.346;2023-02-28T07:02:32;1.85;;;1.58;;
34775;SDS011;20989;52.566;13.346;2023-02-28T07:05:34;2.13;;;1.33;;
34775;SDS011;20989;52.566;13.346;2023-02-28T07:08:37;1.58;;;1.48;;
34775;SDS011;20989;52.566;13.346;2023-02-28T07:11:38;1.80;;;1.30;;
34775;SDS011;20989;52.566;13.346;2023-02-28T07:14:38;1.63;;;1.50;;
34775;SDS011;20989;52.566;13.346;2023-02-28T07:17:39;1.55;;;1.45;;
34775;SDS011;20989;52.566;13.346;2023-02-28T07:20:39;3.40;;;1.48;;
34775;SDS011;20989;52.566;13.346;2023-02-28T07:23:40;2.92;;;1.23;;
34775;SDS011;20989;52.566;13.346;2023-02-28T07:26:41;1.52;;;1.40;;
34775;SDS011;20989;52.566;13.346;2023-02-28T07:29:42;1.90;;;1.38;;
34775;SDS011;20989;52.566;13.346;2023-02-28T07:32:43;1.60;;;1.50;;
34775;SDS011;20989;52.566;13.346;2023-02-28T07:35:44;1.40;;;1.30;;
34775;SDS011;20989;52.566;13.346;2023-02-28T07:38:45;1.33;;;1.23;;
34775;SDS011;20989;52.566;13.346;2023-02-28T07:41:48;1.60;;;1.50;;
34775;SDS011;20989;52.566;13.346;2023-02-28T07:44:48;1.50;;;1.40;;
34775;SDS011;20989;52.566;13.346;2023-02-28T07:47:51;2.72;;;1.67;;
34775;SDS011;20989;52.566;13.346;2023-02-28T07:50:55;1.50;;;1.40;;
34775;SDS011;20989;52.566;13.346;2023-02-28T07:53:57;1.40;;;1.30;;
34775;SDS011;20989;52.566;13.346;2023-02-28T07:56:58;1.38;;;1.27;;
34775;SDS011;20989;52.566;13.346;2023-02-28T07:59:59;1.55;;;1.45;;
34775;SDS011;20989;52.566;13.346;2023-02-28T08:03:00;1.40;;;1.30;;
34775;SDS011;20989;52.566;13.346;2023-02-28T08:06:01;1.90;;;1.80;;
34775;SDS011;20989;52.566;13.346;2023-02-28T08:09:03;1.48;;;1.38;;
34775;SDS011;20989;52.566;13.346;2023-02-28T08:12:03;3.67;;;1.60;;
34775;SDS011;20989;52.566;13.346;2023-02-28T08:15:05;2.67;;;1.40;;
34775;SDS011;20989;52.566;13.346;2023-02-28T08:18:06;4.15;;;1.55;;
34775;SDS011;20989;52.566;13.346;2023-02-28T08:21:07;1.58;;;1.48;;
34775;SDS011;20989;52.566;13.346;2023-02-28T08:24:08;3.60;;;1.75;;
34775;SDS011;20989;52.566;13.346;2023-02-28T08:27:09;1.35;;;1.25;;
34775;SDS011;20989;52.566;13.346;2023-02-28T08:30:10;1.92;;;1.20;;
34775;SDS011;20989;52.566;13.346;2023-02-28T08:33:12;3.63;;;1.40;;
34775;SDS011;20989;52.566;13.346;2023-02-28T08:36:13;1.77;;;1.67;;
34775;SDS011;20989;52.566;13.346;2023-02-28T08:39:15;1.65;;;1.55;;
34775;SDS011;20989;52.566;13.346;2023-02-28T08:42:15;1.92;;;1.83;;
34775;SDS011;20989;52.566;13.346;2023-02-28T08:45:16;1.30;;;1.20;;
34775;SDS011;20989;52.566;13.346;2023-02-28T08:48:17;2.15;;;1.70;;
34775;SDS011;20989;52.566;13.346;2023-02-28T08:51:17;1.75;;;1.65;;
34775;SDS011;20989;52.566;13.346;2023-02-28T08:54:21;1.60;;;1.20;;
34775;SDS011;20989;52.566;13.346;2023-02-28T08:57:23;2.80;;;2.60;;
34775;SDS011;20989;52.566;13.346;2023-02-28T09:00:26;4.63;;;3.22;;
34775;SDS011;20989;52.566;13.346;2023-02-28T09:03:27;5.53;;;3.45;;
34775;SDS011;20989;52.566;13.346;2023-02-28T09:06:27;3.85;;;2.53;;
34775;SDS011;20989;52.566;13.346;2023-02-28T09:09:28;5.45;;;2.67;;
34775;SDS011;20989;52.566;13.346;2023-02-28T09:12:32;3.13;;;1.98;;
34775;SDS011;20989;52.566;13.346;2023-02-28T09:15:34;7.65;;;2.58;;
34775;SDS011;20989;52.566;13.346;2023-02-28T09:18:37;9.48;;;2.38;;
34775;SDS011;20989;52.566;13.346;2023-02-28T09:21:38;9.00;;;2.55;;
34775;SDS011;20989;52.566;13.346;2023-02-28T09:24:39;7.32;;;2.72;;
34775;SDS011;20989;52.566;13.346;2023-02-28T09:27:40;7.22;;;2.50;;
34775;SDS011;20989;52.566;13.346;2023-02-28T09:30:41;3.45;;;1.98;;
34775;SDS011;20989;52.566;13.346;2023-02-28T09:33:42;4.07;;;2.15;;
34775;SDS011;20989;52.566;13.346;2023-02-28T09:36:43;3.72;;;2.28;;
34775;SDS011;20989;52.566;13.346;2023-02-28T09:39:43;4.53;;;2.75;;
34775;SDS011;20989;52.566;13.346;2023-02-28T09:42:47;8.63;;;3.20;;
34775;SDS011;20989;52.566;13.346;2023-02-28T09:45:59;6.72;;;3.35;;
34775;SDS011;20989;52.566;13.346;2023-02-28T09:49:06;7.80;;;3.55;;
34775;SDS011;20989;52.566;13.346;2023-02-28T09:52:23;8.93;;;3.53;;
34775;SDS011;20989;52.566;13.346;2023-02-28T09:55:38;4.65;;;2.85;;
34775;SDS011;20989;52.566;13.346;2023-02-28T09:58:51;5.28;;;2.97;;
34775;SDS011;20989;52.566;13.346;2023-02-28T10:09:01;10.52;;;3.60;;
34775;SDS011;20989;52.566;13.346;2023-02-28T10:12:13;6.22;;;2.95;;
34775;SDS011;20989;52.566;13.346;2023-02-28T10:15:16;6.90;;;2.83;;
34775;SDS011;20989;52.566;13.346;2023-02-28T10:18:20;12.32;;;3.72;;
34775;SDS011;20989;52.566;13.346;2023-02-28T10:21:38;6.55;;;2.80;;
34775;SDS011;20989;52.566;13.346;2023-02-28T10:24:59;6.30;;;3.35;;
34775;SDS011;20989;52.566;13.346;2023-02-28T10:28:10;5.85;;;2.50;;
34775;SDS011;20989;52.566;13.346;2023-02-28T10:31:15;4.03;;;2.72;;
34775;SDS011;20989;52.566;13.346;2023-02-28T10:34:18;4.60;;;2.90;;
34775;SDS011;20989;52.566;13.346;2023-02-28T10:37:19;6.07;;;2.85;;
34775;SDS011;20989;52.566;13.346;2023-02-28T10:43:21;4.63;;;2.42;;
34775;SDS011;20989;52.566;13.346;2023-02-28T10:46:23;3.17;;;2.47;;
34775;SDS011;20989;52.566;13.346;2023-02-28T10:49:27;4.63;;;2.45;;
34775;SDS011;20989;52.566;13.346;2023-02-28T10:52:33;3.53;;;2.33;;
34775;SDS011;20989;52.566;13.346;2023-02-28T10:55:39;5.05;;;2.33;;
34775;SDS011;20989;52.566;13.346;2023-02-28T11:05:34;2.85;;;2.30;;
34775;SDS011;20989;52.566;13.346;2023-02-28T11:08:43;5.82;;;2.08;;
34775;SDS011;20989;52.566;13.346;2023-02-28T11:11:54;5.03;;;2.70;;
34775;SDS011;20989;52.566;13.346;2023-02-28T11:14:56;4.13;;;2.30;;
34775;SDS011;20989;52.566;13.346;2023-02-28T11:21:17;6.68;;;2.13;;
34775;SDS011;20989;52.566;13.346;2023-02-28T11:24:37;4.22;;;2.38;;
34775;SDS011;20989;52.566;13.346;2023-02-28T11:31:22;4.97;;;2.03;;
34775;SDS011;20989;52.566;13.346;2023-02-28T11:34:24;8.98;;;2.22;;
34775;SDS011;20989;52.566;13.346;2023-02-28T11:37:27;8.93;;;1.98;;
34775;SDS011;20989;52.566;13.346;2023-02-28T11:40:39;6.07;;;2.40;;
34775;SDS011;20989;52.566;13.346;2023-02-28T11:56:47;1.55;;;1.45;;
34775;SDS011;20989;52.566;13.346;2023-02-28T12:06:50;2.55;;;1.60;;
34775;SDS011;20989;52.566;13.346;2023-02-28T12:13:36;2.63;;;1.42;;
34775;SDS011;20989;52.566;13.346;2023-02-28T12:26:44;2.50;;;1.60;;
34775;SDS011;20989;52.566;13.346;2023-02-28T12:29:49;4.25;;;1.70;;
34775;SDS011;20989;52.566;13.346;2023-02-28T12:33:24;1.35;;;1.25;;
34775;SDS011;20989;52.566;13.346;2023-02-28T12:36:21;2.03;;;1.50;;
34775;SDS011;20989;52.566;13.346;2023-02-28T12:39:26;1.80;;;1.40;;
34775;SDS011;20989;52.566;13.346;2023-02-28T12:42:32;1.33;;;1.23;;
34775;SDS011;20989;52.566;13.346;2023-02-28T12:49:13;3.67;;;1.20;;
34775;SDS011;20989;52.566;13.346;2023-02-28T12:52:29;3.38;;;1.65;;
34775;SDS011;20989;52.566;13.346;2023-02-28T12:55:50;1.70;;;1.55;;
34775;SDS011;20989;52.566;13.346;2023-02-28T12:59:26;1.15;;;1.05;;
34775;SDS011;20989;52.566;13.346;2023-02-28T13:09:57;1.52;;;1.42;;
34775;SDS011;20989;52.566;13.346;2023-02-28T13:13:01;5.10;;;1.20;;
34775;SDS011;20989;52.566;13.346;2023-02-28T13:16:08;4.18;;;1.58;;
34775;SDS011;20989;52.566;13.346;2023-02-28T13:19:10;1.83;;;1.63;;
34775;SDS011;20989;52.566;13.346;2023-02-28T13:22:19;2.25;;;1.33;;
34775;SDS011;20989;52.566;13.346;2023-02-28T13:35:34;6.68;;;4.38;;
34775;SDS011;20989;52.566;13.346;2023-02-28T13:38:38;5.72;;;3.40;;
34775;SDS011;20989;52.566;13.346;2023-02-28T13:45:38;5.65;;;3.45;;
34775;SDS011;20989;52.566;13.346;2023-02-28T13:48:39;5.82;;;4.53;;
34775;SDS011;20989;52.566;13.346;2023-02-28T14:15:59;5.07;;;2.40;;
34775;SDS011;20989;52.566;13.346;2023-02-28T14:19:02;4.80;;;2.83;;
34775;SDS011;20989;52.566;13.346;2023-02-28T14:26:08;5.03;;;2.67;;
34775;SDS011;20989;52.566;13.346;2023-02-28T14:36:33;4.07;;;2.50;;
34775;SDS011;20989;52.566;13.346;2023-02-28T14:39:36;3.00;;;2.22;;
34775;SDS011;20989;52.566;13.346;2023-02-28T14:42:46;3.50;;;2.50;;
34775;SDS011;20989;52.566;13.346;2023-02-28T14:45:52;8.13;;;2.60;;
34775;SDS011;20989;52.566;13.346;2023-02-28T14:48:56;4.57;;;2.80;;
34775;SDS011;20989;52.566;13.346;2023-02-28T14:55:18;3.95;;;2.55;;
34775;SDS011;20989;52.566;13.346;2023-02-28T14:58:23;3.30;;;2.28;;
34775;SDS011;20989;52.566;13.346;2023-02-28T15:01:27;5.88;;;3.15;;
34775;SDS011;20989;52.566;13.346;2023-02-28T15:04:27;2.50;;;2.10;;
34775;SDS011;20989;52.566;13.346;2023-02-28T15:07:28;3.88;;;2.42;;
34775;SDS011;20989;52.566;13.346;2023-02-28T15:10:31;3.92;;;2.42;;
34775;SDS011;20989;52.566;13.346;2023-02-28T15:13:40;3.22;;;2.13;;
34775;SDS011;20989;52.566;13.346;2023-02-28T15:16:45;4.78;;;2.40;;
34775;SDS011;20989;52.566;13.346;2023-02-28T15:19:50;4.15;;;2.40;;
34775;SDS011;20989;52.566;13.346;2023-02-28T15:22:53;5.22;;;2.38;;
34775;SDS011;20989;52.566;13.346;2023-02-28T15:25:56;4.35;;;1.80;;
34775;SDS011;20989;52.566;13.346;2023-02-28T15:29:03;2.90;;;1.98;;
34775;SDS011;20989;52.566;13.346;2023-02-28T15:32:28;3.42;;;2.22;;
34775;SDS011;20989;52.566;13.346;2023-02-28T15:35:33;3.67;;;1.98;;
34775;SDS011;20989;52.566;13.346;2023-02-28T15:38:35;5.30;;;1.60;;
34775;SDS011;20989;52.566;13.346;2023-02-28T15:41:37;6.82;;;2.08;;
34775;SDS011;20989;52.566;13.346;2023-02-28T15:44:38;4.50;;;1.77;;
34775;SDS011;20989;52.566;13.346;2023-02-28T15:47:39;1.70;;;1.60;;
34775;SDS011;20989;52.566;13.346;2023-02-28T15:50:39;1.95;;;1.77;;
34775;SDS011;20989;52.566;13.346;2023-02-28T15:53:44;2.33;;;1.95;;
34775;SDS011;20989;52.566;13.346;2023-02-28T15:56:46;3.17;;;1.77;;
34775;SDS011;20989;52.566;13.346;2023-02-28T15:59:52;5.25;;;1.88;;
34775;SDS011;20989;52.566;13.346;2023-02-28T16:02:59;2.22;;;1.77;;
34775;SDS011;20989;52.566;13.346;2023-02-28T16:06:18;3.67;;;1.67;;
34775;SDS011;20989;52.566;13.346;2023-02-28T16:09:25;3.45;;;1.70;;
34775;SDS011;20989;52.566;13.346;2023-02-28T16:12:28;1.70;;;1.48;;
34775;SDS011;20989;52.566;13.346;2023-02-28T16:15:31;3.40;;;1.88;;
34775;SDS011;20989;52.566;13.346;2023-02-28T16:18:41;2.67;;;1.73;;
34775;SDS011;20989;52.566;13.346;2023-02-28T16:21:42;4.38;;;1.50;;
34775;SDS011;20989;52.566;13.346;2023-02-28T16:24:43;2.05;;;1.63;;
34775;SDS011;20989;52.566;13.346;2023-02-28T16:27:45;2.33;;;1.83;;
34775;SDS011;20989;52.566;13.346;2023-02-28T16:30:51;1.55;;;1.35;;
34775;SDS011;20989;52.566;13.346;2023-02-28T16:33:53;1.88;;;1.70;;
34775;SDS011;20989;52.566;13.346;2023-02-28T16:36:54;1.73;;;1.60;;
34775;SDS011;20989;52.566;13.346;2023-02-28T16:39:54;2.63;;;1.50;;
34775;SDS011;20989;52.566;13.346;2023-02-28T16:42:58;1.40;;;1.30;;
34775;SDS011;20989;52.566;13.346;2023-02-28T16:46:00;1.55;;;1.45;;
34775;SDS011;20989;52.566;13.346;2023-02-28T16:49:03;4.97;;;2.72;;
34775;SDS011;20989;52.566;13.346;2023-02-28T16:52:03;6.10;;;3.90;;
34775;SDS011;20989;52.566;13.346;2023-02-28T16:55:06;6.15;;;3.90;;
34775;SDS011;20989;52.566;13.346;2023-02-28T16:58:10;6.45;;;3.10;;
34775;SDS011;20989;52.566;13.346;2023-02-28T17:01:16;7.70;;;4.22;;
34775;SDS011;20989;52.566;13.346;2023-02-28T17:04:21;7.53;;;3.47;;
34775;SDS011;20989;52.566;13.346;2023-02-28T17:07:22;6.00;;;3.90;;
34775;SDS011;20989;52.566;13.346;2023-02-28T17:10:24;10.63;;;4.28;;
34775;SDS011;20989;52.566;13.346;2023-02-28T17:13:26;8.85;;;3.80;;
34775;SDS011;20989;52.566;13.346;2023-02-28T17:19:32;4.65;;;2.72;;
34775;SDS011;20989;52.566;13.346;2023-02-28T17:22:34;4.35;;;3.08;;
34775;SDS011;20989;52.566;13.346;2023-02-28T17:25:34;4.70;;;2.65;;
34775;SDS011;20989;52.566;13.346;2023-02-28T17:28:36;3.60;;;2.53;;
34775;SDS011;20989;52.566;13.346;2023-02-28T17:31:37;5.70;;;3.03;;
34775;SDS011;20989;52.566;13.346;2023-02-28T17:34:38;3.67;;;2.45;;
34775;SDS011;20989;52.566;13.346;2023-02-28T17:37:39;2.95;;;2.50;;
34775;SDS011;20989;52.566;13.346;2023-02-28T17:40:41;3.85;;;3.00;;
34775;SDS011;20989;52.566;13.346;2023-02-28T17:43:42;2.55;;;2.35;;
34775;SDS011;20989;52.566;13.346;2023-02-28T17:46:43;6.63;;;2.80;;
34775;SDS011;20989;52.566;13.346;2023-02-28T17:49:45;2.63;;;1.95;;
34775;SDS011;20989;52.566;13.346;2023-02-28T17:52:46;8.68;;;2.65;;
34775;SDS011;20989;52.566;13.346;2023-02-28T17:55:47;4.75;;;2.78;;
34775;SDS011;20989;52.566;13.346;2023-02-28T17:58:49;5.28;;;2.40;;
34775;SDS011;20989;52.566;13.346;2023-02-28T18:01:51;6.07;;;2.72;;
34775;SDS011;20989;52.566;13.346;2023-02-28T18:04:51;3.03;;;2.10;;
34775;SDS011;20989;52.566;13.346;2023-02-28T18:07:52;2.75;;;2.05;;
34775;SDS011;20989;52.566;13.346;2023-02-28T18:10:53;4.95;;;2.20;;
34775;SDS011;20989;52.566;13.346;2023-02-28T18:13:53;2.80;;;2.17;;
34775;SDS011;20989;52.566;13.346;2023-02-28T18:16:57;8.38;;;2.30;;
34775;SDS011;20989;52.566;13.346;2023-02-28T18:19:58;5.85;;;2.40;;
34775;SDS011;20989;52.566;13.346;2023-02-28T18:22:59;2.20;;;2.00;;
34775;SDS011;20989;52.566;13.346;2023-02-28T18:26:00;7.72;;;2.58;;
34775;SDS011;20989;52.566;13.346;2023-02-28T18:29:01;3.72;;;1.73;;
34775;SDS011;20989;52.566;13.346;2023-02-28T18:32:03;2.83;;;2.13;;
34775;SDS011;20989;52.566;13.346;2023-02-28T18:35:05;4.18;;;2.30;;
34775;SDS011;20989;52.566;13.346;2023-02-28T18:41:12;3.15;;;2.33;;
34775;SDS011;20989;52.566;13.346;2023-02-28T18:44:13;4.15;;;1.75;;
34775;SDS011;20989;52.566;13.346;2023-02-28T18:47:14;2.60;;;1.80;;
34775;SDS011;20989;52.566;13.346;2023-02-28T18:50:15;3.25;;;1.80;;
34775;SDS011;20989;52.566;13.346;2023-02-28T18:53:16;1.70;;;1.60;;
34775;SDS011;20989;52.566;13.346;2023-02-28T18:56:18;3.65;;;1.95;;
34775;SDS011;20989;52.566;13.346;2023-02-28T18:59:21;2.03;;;1.83;;
34775;SDS011;20989;52.566;13.346;2023-02-28T19:02:22;2.90;;;2.17;;
34775;SDS011;20989;52.566;13.346;2023-02-28T19:05:22;3.75;;;2.10;;
34775;SDS011;20989;52.566;13.346;2023-02-28T19:08:24;1.90;;;1.80;;
34775;SDS011;20989;52.566;13.346;2023-02-28T19:11:25;3.35;;;1.80;;
34775;SDS011;20989;52.566;13.346;2023-02-28T19:14:26;5.97;;;2.50;;
34775;SDS011;20989;52.566;13.346;2023-02-28T19:17:27;8.43;;;2.40;;
34775;SDS011;20989;52.566;13.346;2023-02-28T19:20:27;2.72;;;2.13;;
34775;SDS011;20989;52.566;13.346;2023-02-28T19:23:30;8.60;;;2.97;;
34775;SDS011;20989;52.566;13.346;2023-02-28T19:26:31;6.05;;;1.98;;
34775;SDS011;20989;52.566;13.346;2023-02-28T19:29:32;5.60;;;2.30;;
34775;SDS011;20989;52.566;13.346;2023-02-28T19:32:33;4.95;;;1.98;;
34775;SDS011;20989;52.566;13.346;2023-02-28T19:35:33;3.75;;;2.45;;
34775;SDS011;20989;52.566;13.346;2023-02-28T19:38:34;12.68;;;2.88;;
34775;SDS011;20989;52.566;13.346;2023-02-28T19:41:35;5.68;;;1.92;;
34775;SDS011;20989;52.566;13.346;2023-02-28T19:44:35;6.60;;;2.45;;
34775;SDS011;20989;52.566;13.346;2023-02-28T19:47:36;4.53;;;2.20;;
34775;SDS011;20989;52.566;13.346;2023-02-28T19:50:37;7.57;;;2.20;;
34775;SDS011;20989;52.566;13.346;2023-02-28T19:53:40;6.80;;;2.70;;
34775;SDS011;20989;52.566;13.346;2023-02-28T19:56:41;3.83;;;2.47;;
34775;SDS011;20989;52.566;13.346;2023-02-28T19:59:42;5.68;;;2.25;;
34775;SDS011;20989;52.566;13.346;2023-02-28T20:02:44;4.97;;;2.40;;
34775;SDS011;20989;52.566;13.346;2023-02-28T20:05:46;2.85;;;2.33;;
34775;SDS011;20989;52.566;13.346;2023-02-28T20:08:46;15.23;;;2.20;;
34775;SDS011;20989;52.566;13.346;2023-02-28T20:11:47;33.47;;;3.00;;
34775;SDS011;20989;52.566;13.346;2023-02-28T20:14:48;19.00;;;2.30;;
34775;SDS011;20989;52.566;13.346;2023-02-28T20:17:50;15.00;;;3.00;;
34775;SDS011;20989;52.566;13.346;2023-02-28T20:20:50;10.43;;;2.75;;
34775;SDS011;20989;52.566;13.346;2023-02-28T20:23:51;12.25;;;2.88;;
34775;SDS011;20989;52.566;13.346;2023-02-28T20:26:52;8.75;;;3.03;;
34775;SDS011;20989;52.566;13.346;2023-02-28T20:29:53;4.78;;;2.40;;
34775;SDS011;20989;52.566;13.346;2023-02-28T20:32:53;5.10;;;2.50;;
34775;SDS011;20989;52.566;13.346;2023-02-28T20:35:57;2.42;;;2.22;;
34775;SDS011;20989;52.566;13.346;2023-02-28T20:38:59;8.00;;;2.85;;
34775;SDS011;20989;52.566;13.346;2023-02-28T20:42:00;3.35;;;2.47;;
34775;SDS011;20989;52.566;13.346;2023-02-28T20:45:01;7.47;;;2.85;;
34775;SDS011;20989;52.566;13.346;2023-02-28T20:48:02;5.70;;;2.15;;
34775;SDS011;20989;52.566;13.346;2023-02-28T20:51:04;5.32;;;2.72;;
34775;SDS011;20989;52.566;13.346;2023-02-28T20:54:06;9.18;;;2.72;;
34775;SDS011;20989;52.566;13.346;2023-02-28T20:57:07;3.70;;;2.42;;